Time;durP1;ratioP1;P1;durP2;ratioP2;P2;SDS_P1;SDS_P2;PMS_P1;PMS_P2;Temp;Humidity;BMP_temperature;BMP_pressure;BME280_temperature;BME280_humidity;BME280_pressure;Samples;Min_cycle;Max_cycle;Signal;HPM_P1;HPM_P2
2023/01/03 00:01:49;;;;;;;1999.90;999.90;;;9.60;99.90;;;;;;5009353;28;20461;-69
2023/01/03 00:04:16;;;;;;;1999.90;999.90;;;9.80;99.90;;;;;;5011961;28;20470;-68
2023/01/03 00:06:45;;;;;;;1999.90;999.90;;;9.80;99.90;;;;;;5009217;28;20441;-68
2023/01/03 00:09:14;;;;;;;1999.90;999.90;;;9.70;99.90;;;;;;5012207;28;20436;-69
2023/01/03 00:14:29;;;;;;;1999.90;999.90;;;9.70;99.90;;;;;;5010873;28;20427;-69
2023/01/03 00:16:58;;;;;;;1999.90;999.90;;;9.60;99.90;;;;;;5005944;28;20428;-69
2023/01/03 00:19:26;;;;;;;1999.90;999.90;;;9.60;99.90;;;;;;5010276;28;20437;-68
2023/01/03 00:21:53;;;;;;;1999.90;999.90;;;9.70;99.90;;;;;;5011265;28;20440;-69
2023/01/03 00:24:20;;;;;;;1999.90;999.90;;;9.60;99.90;;;;;;5011781;28;20494;-70
2023/01/03 00:26:47;;;;;;;1999.90;999.90;;;9.60;99.90;;;;;;5010248;28;20448;-70
2023/01/03 00:29:14;;;;;;;1999.90;999.90;;;9.60;99.90;;;;;;5008825;28;21448;-69
2023/01/03 00:31:43;;;;;;;1999.90;999.90;;;9.50;99.90;;;;;;5010580;28;20428;-69
2023/01/03 00:34:10;;;;;;;1999.90;999.90;;;9.50;99.90;;;;;;5010872;28;20437;-69
2023/01/03 00:36:37;;;;;;;1999.90;999.90;;;9.60;99.90;;;;;;5008943;28;20484;-69
2023/01/03 00:39:04;;;;;;;1999.90;999.90;;;9.50;99.90;;;;;;5010799;28;20444;-68
2023/01/03 00:41:31;;;;;;;1999.90;999.90;;;9.50;99.90;;;;;;5008256;28;20467;-70
2023/01/03 00:43:58;;;;;;;1999.90;999.90;;;9.60;99.90;;;;;;5008270;28;20487;-70
2023/01/03 00:46:25;;;;;;;1999.90;999.90;;;9.50;99.90;;;;;;5007616;28;20935;-69
2023/01/03 00:48:53;;;;;;;1999.90;999.90;;;9.50;99.90;;;;;;5010653;28;20440;-70
2023/01/03 00:51:24;;;;;;;1999.90;999.90;;;9.40;99.90;;;;;;5008681;28;20986;-70
2023/01/03 00:53:53;;;;;;;1999.90;999.90;;;9.40;99.90;;;;;;5011204;28;20485;-72
2023/01/03 00:56:22;;;;;;;1999.90;999.90;;;9.30;99.90;;;;;;5009961;28;20436;-70
2023/01/03 00:58:49;;;;;;;1999.90;999.90;;;9.20;99.90;;;;;;5010652;28;20466;-70
2023/01/03 01:01:17;;;;;;;1999.90;999.90;;;9.30;99.90;;;;;;5011241;28;20436;-68
2023/01/03 01:03:47;;;;;;;1999.90;999.90;;;9.30;99.90;;;;;;5010571;28;20432;-69
2023/01/03 01:06:18;;;;;;;1999.90;999.90;;;9.30;99.90;;;;;;5008933;28;20549;-69
2023/01/03 01:08:46;;;;;;;1999.90;999.90;;;9.30;99.90;;;;;;5010124;28;20435;-70
2023/01/03 01:11:14;;;;;;;1999.90;999.90;;;9.30;99.90;;;;;;5010422;28;20494;-69
2023/01/03 01:13:41;;;;;;;1999.90;999.90;;;9.30;99.90;;;;;;5010633;28;20436;-70
2023/01/03 01:16:11;;;;;;;1999.90;999.90;;;9.30;99.90;;;;;;5010323;28;20848;-70
2023/01/03 01:18:39;;;;;;;1999.90;999.90;;;9.30;99.90;;;;;;5010489;28;20468;-70
2023/01/03 01:21:06;;;;;;;1999.90;999.90;;;9.20;99.90;;;;;;5010315;28;20432;-70
2023/01/03 01:23:37;;;;;;;1999.90;999.90;;;9.30;99.90;;;;;;5011089;28;20467;-70
2023/01/03 01:26:05;;;;;;;1999.90;999.90;;;9.20;99.90;;;;;;5003043;28;20429;-70
2023/01/03 01:28:33;;;;;;;1999.90;999.90;;;9.10;99.90;;;;;;5010054;28;20825;-70
2023/01/03 01:31:00;;;;;;;1999.90;999.90;;;9.00;99.90;;;;;;5003454;28;20444;-73
2023/01/03 01:33:28;;;;;;;1999.90;999.90;;;9.00;99.90;;;;;;5009861;28;20495;-68
2023/01/03 01:35:55;;;;;;;1999.90;999.90;;;8.90;99.90;;;;;;5009385;28;20442;-72
2023/01/03 01:38:21;;;;;;;1999.90;999.90;;;8.80;99.90;;;;;;5010108;28;20485;-72
2023/01/03 01:40:49;;;;;;;1999.90;999.90;;;8.80;99.90;;;;;;5010385;28;20433;-68
2023/01/03 01:46:02;;;;;;;1999.90;999.90;;;8.70;99.90;;;;;;4960121;28;20498;-70
2023/01/03 01:48:29;;;;;;;1999.90;999.90;;;8.70;99.90;;;;;;4997742;28;20871;-71
2023/01/03 01:50:56;;;;;;;1999.90;999.90;;;8.70;99.90;;;;;;5020396;28;20868;-70
2023/01/03 01:53:28;;;;;;;1999.90;999.90;;;8.60;99.90;;;;;;5007709;28;20436;-71
2023/01/03 01:55:59;;;;;;;1999.90;999.90;;;8.70;99.90;;;;;;5010289;28;20924;-72
2023/01/03 01:58:28;;;;;;;1999.90;999.90;;;8.60;99.90;;;;;;5009369;28;20457;-72
2023/01/03 02:00:55;;;;;;;1999.90;999.90;;;8.50;99.90;;;;;;5010044;28;20432;-70
2023/01/03 02:03:22;;;;;;;1999.90;999.90;;;8.50;99.90;;;;;;5007731;28;20441;-68
2023/01/03 02:05:52;;;;;;;1999.90;999.90;;;8.40;99.90;;;;;;5010550;28;20432;-70
2023/01/03 02:08:19;;;;;;;1999.90;999.90;;;8.40;99.90;;;;;;5008596;28;20440;-70
2023/01/03 02:11:08;;;;;;;1999.90;999.90;;;8.40;99.90;;;;;;5010110;28;20575;-70
2023/01/03 02:13:48;;;;;;;1999.90;999.90;;;8.30;99.90;;;;;;5008485;28;20432;-70
2023/01/03 02:16:31;;;;;;;1999.90;999.90;;;8.20;99.90;;;;;;5006183;28;20432;-69
2023/01/03 02:19:15;;;;;;;1999.90;999.90;;;8.20;99.90;;;;;;5009807;28;20432;-70
2023/01/03 02:22:15;;;;;;;1999.90;999.90;;;8.20;99.90;;;;;;5008486;28;20482;-69
2023/01/03 02:25:04;;;;;;;1999.90;999.90;;;8.10;99.90;;;;;;5008741;28;20933;-69
2023/01/03 02:27:57;;;;;;;1999.90;999.90;;;8.10;99.90;;;;;;5009238;28;20432;-71
2023/01/03 02:30:49;;;;;;;1999.90;999.90;;;8.00;99.90;;;;;;5007611;28;20432;-69
2023/01/03 02:33:24;;;;;;;1999.90;999.90;;;8.00;99.90;;;;;;5004502;28;21115;-70
2023/01/03 02:36:00;;;;;;;1999.90;999.90;;;8.10;99.90;;;;;;5008384;28;20432;-69
2023/01/03 02:38:34;;;;;;;1999.90;999.90;;;8.00;99.90;;;;;;5011628;28;20978;-70
2023/01/03 02:41:07;;;;;;;1999.90;999.90;;;8.10;99.90;;;;;;5014551;28;20432;-71
2023/01/03 02:43:41;;;;;;;1999.90;999.90;;;7.90;99.90;;;;;;5013119;28;20913;-70
2023/01/03 02:46:15;;;;;;;1999.90;999.90;;;7.80;99.90;;;;;;5009045;28;20982;-70
2023/01/03 02:48:48;;;;;;;1999.90;999.90;;;7.90;99.90;;;;;;5012671;28;20530;-69
2023/01/03 02:51:21;;;;;;;1999.90;999.90;;;7.80;99.90;;;;;;5014996;28;20440;-68
2023/01/03 02:53:50;;;;;;;1999.90;999.90;;;7.60;99.90;;;;;;5011548;28;20425;-71
2023/01/03 02:56:22;;;;;;;1999.90;999.90;;;7.70;99.90;;;;;;5014048;28;20843;-69
2023/01/03 02:58:52;;;;;;;1999.90;999.90;;;7.60;99.90;;;;;;5012409;28;20424;-70
2023/01/03 03:01:20;;;;;;;1999.90;999.90;;;7.60;99.90;;;;;;5014204;28;20466;-70
2023/01/03 03:03:48;;;;;;;1999.90;999.90;;;7.70;99.90;;;;;;5013064;28;20487;-70
2023/01/03 03:06:21;;;;;;;1999.90;999.90;;;7.90;99.90;;;;;;5014594;28;20436;-70
2023/01/03 03:08:48;;;;;;;1999.90;999.90;;;7.90;99.90;;;;;;5010898;28;20494;-70
2023/01/03 03:14:05;;;;;;;1999.90;999.90;;;7.80;99.90;;;;;;5013854;28;21420;-70
2023/01/03 03:16:49;;;;;;;1999.90;999.90;;;7.80;99.90;;;;;;5012608;28;20436;-70
2023/01/03 03:24:52;;;;;;;1999.90;999.90;;;8.20;99.90;;;;;;5012354;28;20494;-70
2023/01/03 03:30:11;;;;;;;1999.90;999.90;;;8.20;99.90;;;;;;5008971;28;20463;-70
2023/01/03 03:32:42;;;;;;;1999.90;999.90;;;8.10;99.90;;;;;;5012150;28;20750;-70
2023/01/03 03:35:12;;;;;;;1999.90;999.90;;;7.90;99.90;;;;;;5011151;28;20428;-71
2023/01/03 03:37:41;;;;;;;1999.90;999.90;;;7.80;99.90;;;;;;5011697;28;20438;-71
2023/01/03 03:45:50;;;;;;;1999.90;999.90;;;7.80;99.90;;;;;;5009962;28;20623;-68
2023/01/03 03:48:22;;;;;;;1999.90;999.90;;;8.00;99.90;;;;;;5014075;28;20428;-70
2023/01/03 03:50:54;;;;;;;1999.90;999.90;;;7.90;99.90;;;;;;5011825;28;20933;-70
2023/01/03 03:53:27;;;;;;;1999.90;999.90;;;7.80;99.90;;;;;;5012156;28;20467;-70
2023/01/03 03:55:58;;;;;;;1999.90;999.90;;;7.80;99.90;;;;;;5011759;28;20467;-70
2023/01/03 03:58:29;;;;;;;1999.90;999.90;;;7.90;99.90;;;;;;5010511;28;20436;-70
2023/01/03 04:00:57;;;;;;;1999.90;999.90;;;7.70;99.90;;;;;;5012343;28;20441;-70
2023/01/03 04:03:26;;;;;;;1999.90;999.90;;;7.70;99.90;;;;;;5013227;28;20463;-70
2023/01/03 04:05:58;;;;;;;1999.90;999.90;;;7.60;99.90;;;;;;5011319;28;20916;-71
2023/01/03 04:08:25;;;;;;;1999.90;999.90;;;7.60;99.90;;;;;;5011341;28;20962;-71
2023/01/03 04:11:04;;;;;;;1999.90;999.90;;;7.60;99.90;;;;;;5011428;28;20471;-71
2023/01/03 04:13:30;;;;;;;1999.90;999.90;;;7.60;99.90;;;;;;5010566;28;20519;-70
2023/01/03 04:15:57;;;;;;;1999.90;999.90;;;7.70;99.90;;;;;;5007469;28;21145;-70
2023/01/03 04:18:25;;;;;;;1999.90;999.90;;;7.70;99.90;;;;;;5011335;28;20437;-71
2023/01/03 04:20:52;;;;;;;1999.90;999.90;;;7.80;99.90;;;;;;5009139;28;20489;-70
2023/01/03 04:23:18;;;;;;;1999.90;999.90;;;7.80;99.90;;;;;;5011088;28;20436;-71
2023/01/03 04:25:45;;;;;;;1999.90;999.90;;;7.80;99.90;;;;;;5007386;28;20446;-70
2023/01/03 04:28:12;;;;;;;1999.90;999.90;;;7.80;99.90;;;;;;5010653;28;20459;-69
2023/01/03 04:30:38;;;;;;;1999.90;999.90;;;7.80;99.90;;;;;;5010153;28;20571;-71
2023/01/03 04:33:05;;;;;;;1999.90;999.90;;;7.90;99.90;;;;;;5010433;28;20920;-72
2023/01/03 04:35:34;;;;;;;1999.90;999.90;;;7.90;99.90;;;;;;5010198;28;21024;-69
2023/01/03 04:38:00;;;;;;;1999.90;999.90;;;7.90;99.90;;;;;;5009717;28;20431;-70
2023/01/03 04:40:28;;;;;;;1999.90;999.90;;;7.80;99.90;;;;;;5010089;28;20943;-71
2023/01/03 04:45:39;;;;;;;1999.90;999.90;;;7.80;99.90;;;;;;5011278;28;20521;-68
2023/01/03 04:48:07;;;;;;;1999.90;999.90;;;7.80;99.90;;;;;;5010129;28;20943;-71
2023/01/03 04:50:35;;;;;;;1999.90;999.90;;;7.80;99.90;;;;;;5007665;28;20825;-68
2023/01/03 04:53:01;;;;;;;1999.90;999.90;;;7.90;99.90;;;;;;5010923;28;20487;-70
2023/01/03 04:55:28;;;;;;;1999.90;999.90;;;7.80;99.90;;;;;;5009019;28;20436;-70
2023/01/03 04:57:55;;;;;;;1999.90;999.90;;;7.70;99.90;;;;;;5010348;28;20459;-71
2023/01/03 05:00:21;;;;;;;1999.90;999.90;;;7.70;99.90;;;;;;5011727;28;20464;-70
2023/01/03 05:02:48;;;;;;;1999.90;999.90;;;7.50;99.90;;;;;;5006782;28;20857;-70
2023/01/03 05:05:14;;;;;;;1999.90;999.90;;;7.50;99.90;;;;;;5009846;28;20441;-70
2023/01/03 05:07:42;;;;;;;1999.90;999.90;;;7.50;99.90;;;;;;5006878;28;20442;-69
2023/01/03 05:10:09;;;;;;;1999.90;999.90;;;7.40;99.90;;;;;;5010201;28;20491;-69
2023/01/03 05:12:36;;;;;;;1999.90;999.90;;;7.40;99.90;;;;;;5007727;28;20924;-67
2023/01/03 05:15:03;;;;;;;1999.90;999.90;;;7.30;99.90;;;;;;5007281;28;20492;-68
2023/01/03 05:17:29;;;;;;;1999.90;999.90;;;7.40;99.90;;;;;;5003200;28;20486;-69
2023/01/03 05:28:10;;;;;;;1999.90;999.90;;;7.20;99.90;;;;;;5006351;28;20487;-68
2023/01/03 05:30:37;;;;;;;1999.90;999.90;;;7.10;99.90;;;;;;5005892;28;20437;-71
2023/01/03 05:33:04;;;;;;;1999.90;999.90;;;7.00;99.90;;;;;;5004478;28;21143;-69
2023/01/03 05:35:30;;;;;;;1999.90;999.90;;;6.90;99.90;;;;;;5007617;28;20433;-69
2023/01/03 05:37:57;;;;;;;1999.90;999.90;;;7.00;99.90;;;;;;4999469;28;20491;-69
2023/01/03 05:40:23;;;;;;;1999.90;999.90;;;7.00;99.90;;;;;;5002882;28;21470;-69
2023/01/03 05:42:51;;;;;;;1999.90;999.90;;;6.90;99.90;;;;;;5007815;28;20920;-70
2023/01/03 05:45:24;;;;;;;1999.90;999.90;;;6.80;99.90;;;;;;5007136;28;20517;-71
2023/01/03 05:47:50;;;;;;;1999.90;999.90;;;6.70;99.90;;;;;;5000747;28;21000;-71
2023/01/03 05:50:17;;;;;;;1999.90;999.90;;;6.60;99.90;;;;;;5001103;28;20959;-70
2023/01/03 05:52:44;;;;;;;1999.90;999.90;;;6.60;99.90;;;;;;5007167;28;20840;-69
2023/01/03 05:55:11;;;;;;;1999.90;999.90;;;6.60;99.90;;;;;;5004247;28;21192;-68
2023/01/03 05:57:37;;;;;;;1999.90;999.90;;;6.50;99.90;;;;;;5008585;28;20487;-70
2023/01/03 06:00:06;;;;;;;1999.90;999.90;;;6.30;99.90;;;;;;5004766;28;20432;-69
2023/01/03 06:02:33;;;;;;;1999.90;999.90;;;6.40;99.90;;;;;;5000502;28;20495;-67
2023/01/03 06:05:00;;;;;;;1999.90;999.90;;;6.50;99.90;;;;;;5003505;28;20879;-69
2023/01/03 06:07:29;;;;;;;1999.90;999.90;;;6.50;99.90;;;;;;5004739;28;20486;-69
2023/01/03 06:09:56;;;;;;;1999.90;999.90;;;6.40;99.90;;;;;;5003779;28;20910;-69
2023/01/03 06:12:23;;;;;;;1999.90;999.90;;;6.50;99.90;;;;;;5009949;28;20844;-67
2023/01/03 06:14:49;;;;;;;1999.90;999.90;;;6.50;99.90;;;;;;5001550;28;20430;-69
2023/01/03 06:20:01;;;;;;;1999.90;999.90;;;6.60;99.90;;;;;;5002963;28;20943;-69
2023/01/03 06:22:28;;;;;;;1999.90;999.90;;;6.50;99.90;;;;;;5006594;28;20437;-68
2023/01/03 06:24:55;;;;;;;1999.90;999.90;;;6.50;99.90;;;;;;5005458;28;20986;-70
2023/01/03 06:27:21;;;;;;;1999.90;999.90;;;6.60;99.90;;;;;;5002739;28;20437;-70
2023/01/03 06:29:48;;;;;;;1999.90;999.90;;;6.70;99.90;;;;;;5004186;28;20439;-69
2023/01/03 06:32:16;;;;;;;1999.90;999.90;;;6.70;99.90;;;;;;5006168;28;20432;-68
2023/01/03 06:34:43;;;;;;;1999.90;999.90;;;6.70;99.90;;;;;;5002248;28;20442;-68
2023/01/03 06:37:09;;;;;;;1999.90;999.90;;;6.70;99.90;;;;;;5003220;28;20433;-69
2023/01/03 06:39:36;;;;;;;1999.90;999.90;;;6.70;99.90;;;;;;5006556;28;20432;-71
2023/01/03 06:42:38;;;;;;;1999.90;999.90;;;6.60;99.90;;;;;;5004677;28;20438;-68
2023/01/03 06:53:12;;;;;;;1999.90;999.90;;;6.60;99.90;;;;;;5002341;28;20940;-69
2023/01/03 06:55:39;;;;;;;1999.90;999.90;;;6.60;99.90;;;;;;5003482;28;20554;-68
2023/01/03 06:58:06;;;;;;;1999.90;999.90;;;6.60;99.90;;;;;;5007474;28;20462;-67
2023/01/03 07:00:34;;;;;;;1999.90;999.90;;;6.70;99.90;;;;;;5001611;28;20487;-67
2023/01/03 07:03:02;;;;;;;1999.90;999.90;;;6.70;99.90;;;;;;5004983;28;20790;-67
2023/01/03 07:05:28;;;;;;;1999.90;999.90;;;6.80;99.90;;;;;;5001522;28;20436;-67
2023/01/03 07:07:55;;;;;;;1999.90;999.90;;;6.80;99.90;;;;;;5004223;28;20449;-68
2023/01/03 07:10:22;;;;;;;1999.90;999.90;;;6.80;99.90;;;;;;5004990;28;20519;-69
2023/01/03 07:15:33;;;;;;;1999.90;999.90;;;6.80;99.90;;;;;;5003322;28;20781;-73
2023/01/03 07:17:59;;;;;;;1999.90;999.90;;;6.90;99.90;;;;;;5001595;28;20534;-71
2023/01/03 07:20:27;;;;;;;1999.90;999.90;;;7.00;99.90;;;;;;5003433;28;20436;-69
2023/01/03 07:22:54;;;;;;;1999.90;999.90;;;6.90;99.90;;;;;;4999161;28;20923;-72
2023/01/03 07:25:21;;;;;;;1999.90;999.90;;;6.90;99.90;;;;;;5006313;28;20467;-72
2023/01/03 07:27:55;;;;;;;1999.90;999.90;;;6.80;99.90;;;;;;5005056;28;20434;-66
2023/01/03 07:30:21;;;;;;;1999.90;999.90;;;6.70;99.90;;;;;;5000957;28;20433;-68
2023/01/03 07:32:48;;;;;;;1999.90;999.90;;;6.70;99.90;;;;;;5003613;28;20491;-70
2023/01/03 07:35:15;;;;;;;1999.90;999.90;;;6.60;99.90;;;;;;5008769;28;20920;-68
2023/01/03 07:37:43;;;;;;;1999.90;999.90;;;6.60;99.90;;;;;;5006087;28;20432;-67
2023/01/03 07:40:10;;;;;;;1999.90;999.90;;;6.80;99.90;;;;;;5005977;28;20482;-68
2023/01/03 07:45:21;;;;;;;1999.90;999.90;;;6.60;99.90;;;;;;5005367;28;20786;-70
2023/01/03 07:47:48;;;;;;;1999.90;999.90;;;6.60;99.90;;;;;;5004742;28;20439;-67
2023/01/03 07:50:14;;;;;;;1999.90;999.90;;;6.60;99.90;;;;;;5009120;28;20440;-67
2023/01/03 07:52:42;;;;;;;1999.90;999.90;;;6.60;99.90;;;;;;5007666;28;20438;-68
2023/01/03 07:55:09;;;;;;;1999.90;999.90;;;6.50;99.90;;;;;;5006384;28;20499;-67
2023/01/03 07:57:37;;;;;;;1999.90;999.90;;;6.50;99.90;;;;;;5004433;28;20438;-68
2023/01/03 08:00:04;;;;;;;1999.90;999.90;;;6.50;99.90;;;;;;5005861;28;20440;-70
2023/01/03 08:02:31;;;;;;;1999.90;999.90;;;6.50;99.90;;;;;;5008927;28;20436;-68
2023/01/03 08:04:57;;;;;;;1999.90;999.90;;;6.50;99.90;;;;;;5002706;28;20783;-67
2023/01/03 08:07:24;;;;;;;1999.90;999.90;;;6.50;99.90;;;;;;5001689;28;20493;-66
2023/01/03 08:15:20;;;;;;;1999.90;999.90;;;6.60;99.90;;;;;;5008861;28;20416;-64
2023/01/03 08:17:47;;;;;;;1999.90;999.90;;;6.50;99.90;;;;;;5008198;28;20450;-68
2023/01/03 08:20:14;;;;;;;1999.90;999.90;;;6.60;99.90;;;;;;5006124;28;20447;-66
2023/01/03 08:22:40;;;;;;;1999.90;999.90;;;6.80;99.90;;;;;;5008428;28;20462;-68
2023/01/03 08:25:09;;;;;;;1999.90;999.90;;;6.60;99.90;;;;;;5006454;28;20498;-67
2023/01/03 08:27:36;;;;;;;1999.90;999.90;;;6.60;99.90;;;;;;5006461;28;20433;-66
2023/01/03 08:30:03;;;;;;;1999.90;999.90;;;6.70;99.90;;;;;;4998545;28;20432;-70
2023/01/03 08:32:30;;;;;;;1999.90;999.90;;;6.80;99.90;;;;;;5020396;28;20452;-67
2023/01/03 08:34:58;;;;;;;1999.90;999.90;;;6.90;99.90;;;;;;5012006;28;20412;-67
2023/01/03 08:37:27;;;;;;;1999.90;999.90;;;7.00;99.90;;;;;;5011636;28;20416;-69
2023/01/03 08:39:56;;;;;;;1999.90;999.90;;;7.10;99.90;;;;;;5012246;28;20836;-69
2023/01/03 08:42:25;;;;;;;1999.90;999.90;;;7.20;99.90;;;;;;5011112;28;20419;-67
2023/01/03 08:44:58;;;;;;;1999.90;999.90;;;7.30;99.90;;;;;;5016203;28;20479;-68
2023/01/03 08:47:25;;;;;;;1999.90;999.90;;;7.30;99.90;;;;;;5028791;28;20777;-67
2023/01/03 08:49:51;;;;;;;1999.90;999.90;;;7.20;99.90;;;;;;5031769;28;20426;-67
2023/01/03 08:52:18;;;;;;;1999.90;999.90;;;7.40;99.90;;;;;;5031645;28;20415;-68
2023/01/03 08:54:44;;;;;;;1999.90;999.90;;;7.50;99.90;;;;;;5027706;28;20826;-68
2023/01/03 08:57:11;;;;;;;1999.90;999.90;;;7.60;99.90;;;;;;5007015;28;20459;-67
2023/01/03 08:59:39;;;;;;;1999.90;999.90;;;7.70;99.90;;;;;;5005842;28;20846;-67
2023/01/03 09:02:06;;;;;;;1999.90;999.90;;;7.70;99.90;;;;;;5002760;28;20436;-67
2023/01/03 09:04:33;;;;;;;1999.90;999.90;;;7.70;99.90;;;;;;4993455;28;20423;-67
2023/01/03 09:07:00;;;;;;;1999.90;999.90;;;7.70;99.90;;;;;;4991235;28;20458;-70
2023/01/03 09:09:27;;;;;;;1999.90;999.90;;;7.80;99.90;;;;;;4994384;28;20515;-67
2023/01/03 09:11:53;;;;;;;1999.90;999.90;;;7.90;99.90;;;;;;5007908;28;20432;-67
2023/01/03 09:14:20;;;;;;;1999.90;999.90;;;7.90;99.90;;;;;;5019814;28;20418;-69
2023/01/03 09:16:48;;;;;;;1999.90;999.90;;;8.00;99.90;;;;;;5030731;28;20489;-68
2023/01/03 09:19:15;;;;;;;1999.90;999.90;;;8.10;99.90;;;;;;5030922;28;20411;-67
2023/01/03 09:21:41;;;;;;;1999.90;999.90;;;8.20;99.90;;;;;;5030909;28;20834;-67
2023/01/03 09:24:08;;;;;;;1999.90;999.90;;;8.20;99.90;;;;;;5031296;28;20410;-67
2023/01/03 09:26:35;;;;;;;1999.90;999.90;;;8.20;99.90;;;;;;5020620;28;20465;-68
2023/01/03 09:29:02;;;;;;;1999.90;999.90;;;8.20;99.90;;;;;;5025419;28;20431;-67
2023/01/03 09:31:33;;;;;;;1999.90;999.90;;;8.20;99.90;;;;;;5030682;28;20476;-67
2023/01/03 09:34:03;;;;;;;1999.90;999.90;;;8.20;99.90;;;;;;5030666;28;20430;-70
2023/01/03 09:36:30;;;;;;;1999.90;999.90;;;8.30;99.90;;;;;;5014643;28;20483;-70
2023/01/03 09:38:56;;;;;;;1999.90;999.90;;;8.40;99.90;;;;;;5002563;28;20499;-70
2023/01/03 09:41:26;;;;;;;1999.90;999.90;;;8.40;99.90;;;;;;5007808;28;20482;-68
2023/01/03 09:43:57;;;;;;;1999.90;999.90;;;8.60;99.90;;;;;;4996579;28;20493;-68
2023/01/03 09:46:26;;;;;;;1999.90;999.90;;;8.60;99.90;;;;;;4995898;28;20487;-66
2023/01/03 09:48:54;;;;;;;1999.90;999.90;;;8.70;99.90;;;;;;4997193;28;20457;-69
2023/01/03 10:05:50;;;;;;;1999.90;999.90;;;8.90;99.90;;;;;;4999282;28;20496;-67
2023/01/03 10:08:29;;;;;;;1999.90;999.90;;;8.80;99.90;;;;;;5003420;28;20440;-67
2023/01/03 10:11:04;;;;;;;1999.90;999.90;;;8.80;99.90;;;;;;5006014;28;20432;-67
2023/01/03 10:13:42;;;;;;;1999.90;999.90;;;8.80;99.90;;;;;;5005161;28;20486;-68
2023/01/03 10:16:18;;;;;;;1999.90;999.90;;;8.80;99.90;;;;;;5006567;28;20828;-68
2023/01/03 10:19:03;;;;;;;1999.90;999.90;;;8.80;99.90;;;;;;4989637;28;20411;-67
2023/01/03 10:21:40;;;;;;;1999.90;999.90;;;8.80;99.90;;;;;;4995689;28;20424;-68
2023/01/03 10:24:16;;;;;;;1999.90;999.90;;;8.90;99.90;;;;;;5000756;28;20428;-66
2023/01/03 10:26:43;;;;;;;1999.90;999.90;;;8.90;99.90;;;;;;5000413;28;21180;-67
2023/01/03 10:29:13;;;;;;;1999.90;999.90;;;8.80;99.90;;;;;;5005953;28;20475;-70
2023/01/03 10:31:59;;;;;;;1999.90;999.90;;;8.90;99.90;;;;;;5000740;28;20438;-67
2023/01/03 10:34:25;;;;;;;1999.90;999.90;;;9.00;99.90;;;;;;4999286;28;20495;-65
2023/01/03 10:36:52;;;;;;;1999.90;999.90;;;9.10;99.90;;;;;;5001387;28;20440;-64
2023/01/03 10:39:30;;;;;;;1999.90;999.90;;;9.10;99.90;;;;;;4999710;28;20435;-69
2023/01/03 10:41:58;;;;;;;1999.90;999.90;;;9.10;99.90;;;;;;5008926;28;20487;-67
2023/01/03 10:44:27;;;;;;;1999.90;999.90;;;9.20;99.90;;;;;;5007306;28;20510;-67
2023/01/03 10:46:56;;;;;;;1999.90;999.90;;;9.20;99.90;;;;;;4999717;28;20455;-67
2023/01/03 10:49:25;;;;;;;1999.90;999.90;;;9.30;99.90;;;;;;4999188;28;20436;-65
2023/01/03 10:51:56;;;;;;;1999.90;999.90;;;9.30;99.90;;;;;;5003211;28;20432;-67
2023/01/03 10:54:31;;;;;;;1999.90;999.90;;;9.30;99.90;;;;;;5005534;28;20436;-66
2023/01/03 10:56:58;;;;;;;1999.90;999.90;;;9.30;99.90;;;;;;4999453;28;20433;-68
2023/01/03 10:59:27;;;;;;;1999.90;999.90;;;9.30;99.90;;;;;;5004134;28;20490;-66
2023/01/03 11:01:57;;;;;;;1999.90;999.90;;;9.40;99.90;;;;;;5006108;28;20463;-66
2023/01/03 11:04:25;;;;;;;1999.90;999.90;;;9.40;99.90;;;;;;5009502;28;20436;-68
2023/01/03 11:07:13;;;;;;;1999.90;999.90;;;9.50;99.90;;;;;;5006926;28;20422;-68
2023/01/03 11:09:46;;;;;;;1999.90;999.90;;;9.50;99.90;;;;;;5011795;28;20856;-68
2023/01/03 11:12:15;;;;;;;1999.90;999.90;;;9.40;99.90;;;;;;5011721;28;20412;-66
2023/01/03 11:14:50;;;;;;;1999.90;999.90;;;9.50;99.90;;;;;;5004119;28;20957;-66
2023/01/03 11:17:20;;;;;;;1999.90;999.90;;;9.60;99.90;;;;;;5005212;28;20446;-66
2023/01/03 11:19:48;;;;;;;1999.90;999.90;;;9.50;99.90;;;;;;5012067;28;20421;-66
2023/01/03 11:22:21;;;;;;;1999.90;999.90;;;9.60;99.90;;;;;;5012519;28;20412;-66
2023/01/03 11:25:09;;;;;;;1999.90;999.90;;;9.60;99.90;;;;;;5012168;28;20487;-67
2023/01/03 11:28:08;;;;;;;1999.90;999.90;;;9.70;99.90;;;;;;5019159;28;20481;-65
2023/01/03 11:30:40;;;;;;;1999.90;999.90;;;9.80;99.90;;;;;;5030585;28;20431;-67
2023/01/03 11:33:36;;;;;;;1999.90;999.90;;;9.70;99.90;;;;;;5031905;28;20415;-68
2023/01/03 11:36:21;;;;;;;1999.90;999.90;;;9.70;99.90;;;;;;5029430;28;20412;-66
2023/01/03 11:39:00;;;;;;;1999.90;999.90;;;9.80;99.90;;;;;;5007909;28;20440;-66
2023/01/03 11:41:44;;;;;;;1999.90;999.90;;;9.80;99.90;;;;;;5002425;28;20531;-67
2023/01/03 11:44:47;;;;;;;1999.90;999.90;;;9.90;99.90;;;;;;4998225;28;20845;-69
2023/01/03 11:47:24;;;;;;;1999.90;999.90;;;9.90;99.90;;;;;;4963642;28;22358;-63
2023/01/03 11:50:03;;;;;;;1999.90;999.90;;;9.90;99.90;;;;;;4998961;28;20436;-69
2023/01/03 11:52:39;;;;;;;1999.90;999.90;;;10.00;99.90;;;;;;5017987;28;20437;-66
2023/01/03 11:55:50;;;;;;;1999.90;999.90;;;10.10;99.90;;;;;;5023071;28;20415;-67
2023/01/03 11:58:35;;;;;;;1999.90;999.90;;;10.10;99.90;;;;;;5003104;28;20924;-68
2023/01/03 12:01:11;;;;;;;1999.90;999.90;;;10.10;99.90;;;;;;5006099;28;20413;-66
2023/01/03 12:03:57;;;;;;;1999.90;999.90;;;10.10;99.90;;;;;;5011941;28;20432;-67
2023/01/03 12:06:33;;;;;;;1999.90;999.90;;;10.10;99.90;;;;;;5018576;28;20498;-67
2023/01/03 12:09:09;;;;;;;1999.90;999.90;;;10.30;99.90;;;;;;5030842;28;20415;-68
2023/01/03 12:11:47;;;;;;;1999.90;999.90;;;10.20;99.90;;;;;;5030289;28;20788;-69
2023/01/03 12:14:20;;;;;;;1999.90;999.90;;;10.30;99.90;;;;;;5031299;28;20411;-68
2023/01/03 12:16:52;;;;;;;1999.90;999.90;;;10.30;99.90;;;;;;5030637;28;20891;-68
2023/01/03 12:19:29;;;;;;;1999.90;999.90;;;10.20;99.90;;;;;;5021259;28;20432;-69
2023/01/03 12:22:01;;;;;;;1999.90;999.90;;;10.30;99.90;;;;;;5003257;28;20447;-67
2023/01/03 12:24:34;;;;;;;1999.90;999.90;;;10.20;99.90;;;;;;5005261;28;20495;-69
2023/01/03 12:27:05;;;;;;;1999.90;999.90;;;10.40;99.90;;;;;;5004000;28;20430;-68
2023/01/03 12:29:43;;;;;;;1999.90;999.90;;;10.30;99.90;;;;;;5005242;28;20471;-66
2023/01/03 12:32:16;;;;;;;1999.90;999.90;;;10.40;99.90;;;;;;5007458;28;20433;-68
2023/01/03 12:34:50;;;;;;;1999.90;999.90;;;10.50;99.90;;;;;;5006916;28;20441;-68
2023/01/03 12:37:21;;;;;;;1999.90;999.90;;;10.50;99.90;;;;;;5004455;28;20441;-67
2023/01/03 12:39:54;;;;;;;1999.90;999.90;;;10.50;99.90;;;;;;5005881;28;20435;-68
2023/01/03 12:42:31;;;;;;;1999.90;999.90;;;10.50;99.90;;;;;;5005446;28;20568;-67
2023/01/03 12:45:22;;;;;;;1999.90;999.90;;;10.50;99.90;;;;;;5006393;28;20446;-68
2023/01/03 12:47:56;;;;;;;1999.90;999.90;;;10.60;99.90;;;;;;5005632;28;20440;-68
2023/01/03 12:50:28;;;;;;;1999.90;999.90;;;10.50;99.90;;;;;;5007250;28;20435;-68
2023/01/03 12:53:00;;;;;;;1999.90;999.90;;;10.30;99.90;;;;;;5001660;28;20441;-68
2023/01/03 12:55:42;;;;;;;1999.90;999.90;;;10.30;99.90;;;;;;5004373;28;20440;-68
2023/01/03 12:58:25;;;;;;;1999.90;999.90;;;10.30;99.90;;;;;;5005817;28;20432;-71
2023/01/03 13:01:00;;;;;;;1999.90;999.90;;;10.20;99.90;;;;;;5005811;28;20438;-69
2023/01/03 13:03:33;;;;;;;1999.90;999.90;;;10.20;99.90;;;;;;5007572;28;20435;-67
2023/01/03 13:06:04;;;;;;;1999.90;999.90;;;10.30;99.90;;;;;;5004874;28;20532;-68
2023/01/03 13:08:38;;;;;;;1999.90;999.90;;;10.30;99.90;;;;;;5003928;28;20486;-70
2023/01/03 13:11:08;;;;;;;1999.90;999.90;;;10.30;99.90;;;;;;5004459;28;20469;-67
2023/01/03 13:13:35;;;;;;;1999.90;999.90;;;10.30;99.90;;;;;;5003036;28;20440;-67
2023/01/03 13:16:32;;;;;;;1999.90;999.90;;;10.30;99.90;;;;;;5003020;28;20936;-67
2023/01/03 13:19:32;;;;;;;1999.90;999.90;;;10.30;99.90;;;;;;5007570;28;20424;-66
2023/01/03 13:22:03;;;;;;;1999.90;999.90;;;10.30;99.90;;;;;;5006003;28;20572;-67
2023/01/03 13:24:41;;;;;;;1999.90;999.90;;;10.10;99.90;;;;;;5004000;28;20428;-72
2023/01/03 13:27:37;;;;;;;1999.90;999.90;;;10.10;99.90;;;;;;5006462;28;20439;-68
2023/01/03 13:30:19;;;;;;;1999.90;999.90;;;10.20;99.90;;;;;;5002953;28;20439;-71
2023/01/03 13:33:03;;;;;;;1999.90;999.90;;;10.20;99.90;;;;;;5003876;28;20432;-69
2023/01/03 13:35:36;;;;;;;1999.90;999.90;;;10.20;99.90;;;;;;5015565;28;20440;-68